createdAt,value
2018-09-24T00:00:35.001Z,41.91
2018-09-24T00:01:35.022Z,41.98
2018-09-24T00:02:35.050Z,42.10
2018-09-24T00:03:35.067Z,42.75
2018-09-24T00:04:35.093Z,41.60
2018-09-24T00:05:35.116Z,41.69
2018-09-24T00:06:35.140Z,42.36
2018-09-24T00:07:35.163Z,41.88
2018-09-24T00:08:35.187Z,42.39
2018-09-24T00:09:35.210Z,42.10
2018-09-24T00:10:35.237Z,42.39
2018-09-24T00:11:35.263Z,42.00
2018-09-24T00:12:35.282Z,41.98
2018-09-24T00:13:35.309Z,41.69
2018-09-24T00:14:35.332Z,42.29
2018-09-24T00:15:35.352Z,42.36
2018-09-24T00:16:35.383Z,41.98
2018-09-24T00:17:35.401Z,41.69
2018-09-24T00:18:35.424Z,42.39
2018-09-24T00:19:35.450Z,42.27
2018-09-24T00:20:35.480Z,42.00
2018-09-24T00:21:35.494Z,42.36
2018-09-24T00:22:35.520Z,41.60
2018-09-24T00:23:35.541Z,42.36
2018-09-24T00:24:35.566Z,42.27
2018-09-24T00:25:35.592Z,42.18
2018-09-24T00:26:35.614Z,41.98
2018-09-24T00:27:35.638Z,42.39
2018-09-24T00:28:35.663Z,42.18
2018-09-24T00:29:35.685Z,42.08
2018-09-24T00:30:35.709Z,42.18
2018-09-24T00:31:35.734Z,42.18
2018-09-24T00:32:35.755Z,42.08
2018-09-24T00:33:35.783Z,42.39
2018-09-24T00:34:35.804Z,42.19
2018-09-24T00:35:35.826Z,42.36
2018-09-24T00:36:35.851Z,41.69
2018-09-24T00:37:35.875Z,42.46
2018-09-24T00:38:35.898Z,42.29
2018-09-24T00:39:35.922Z,41.98
2018-09-24T00:40:35.947Z,41.98
2018-09-24T00:41:35.972Z,41.81
2018-09-24T00:42:35.997Z,41.60
2018-09-24T00:43:36.015Z,41.88
2018-09-24T00:44:36.039Z,41.50
2018-09-24T00:45:36.065Z,41.78
2018-09-24T00:46:36.090Z,41.81
2018-09-24T00:47:36.110Z,41.78
2018-09-24T00:48:36.139Z,41.78
2018-09-24T00:49:36.160Z,41.69
2018-09-24T00:50:36.186Z,41.71
2018-09-24T00:51:36.202Z,41.78
2018-09-24T00:52:36.230Z,41.88
2018-09-24T00:53:36.252Z,41.61
2018-09-24T00:54:36.276Z,41.69
2018-09-24T00:55:36.304Z,41.98
2018-09-24T00:56:36.331Z,42.08
2018-09-24T00:57:36.351Z,41.88
2018-09-24T00:58:36.371Z,41.50
2018-09-24T00:59:36.394Z,41.78
2018-09-24T01:00:36.424Z,41.69
2018-09-24T01:01:36.445Z,41.69
2018-09-24T01:02:36.466Z,42.46
2018-09-24T01:03:36.491Z,42.08
2018-09-24T01:04:36.517Z,41.78
2018-09-24T01:05:36.537Z,41.98
2018-09-24T01:06:36.562Z,41.88
2018-09-24T01:07:36.584Z,41.78
2018-09-24T01:08:36.607Z,41.88
2018-09-24T01:09:36.633Z,42.00
2018-09-24T01:10:36.655Z,41.60
2018-09-24T01:11:36.678Z,42.00
2018-09-24T01:12:36.704Z,41.78
2018-09-24T01:13:36.726Z,42.46
2018-09-24T01:14:36.751Z,41.88
2018-09-24T01:15:36.774Z,42.46
2018-09-24T01:16:36.796Z,41.88
2018-09-24T01:17:36.824Z,42.56
2018-09-24T01:18:36.845Z,41.88
2018-09-24T01:19:36.867Z,42.46
2018-09-24T01:20:36.895Z,42.46
2018-09-24T01:21:36.915Z,42.46
2018-09-24T01:22:36.938Z,42.46
2018-09-24T01:23:36.962Z,42.27
2018-09-24T01:24:36.988Z,42.36
2018-09-24T01:25:37.009Z,41.98
2018-09-24T01:26:37.034Z,42.36
2018-09-24T01:27:37.056Z,42.36
2018-09-24T01:28:37.084Z,41.98
2018-09-24T01:29:37.106Z,41.88
2018-09-24T01:30:37.129Z,42.58
2018-09-24T01:31:37.150Z,41.69
2018-09-24T01:32:37.176Z,41.98
2018-09-24T01:33:37.200Z,41.50
2018-09-24T01:34:37.224Z,41.50
2018-09-24T01:35:37.245Z,41.69
2018-09-24T01:36:37.272Z,41.78
2018-09-24T01:37:37.295Z,41.60
2018-09-24T01:38:37.318Z,41.78
2018-09-24T01:39:37.340Z,41.60
2018-09-24T01:40:37.370Z,41.69
2018-09-24T01:41:37.388Z,41.88
2018-09-24T01:42:37.412Z,41.78
2018-09-24T01:43:37.437Z,41.50
2018-09-24T01:44:37.462Z,41.69
2018-09-24T01:45:37.487Z,41.78
2018-09-24T01:46:37.506Z,41.78
2018-09-24T01:47:37.529Z,41.69
2018-09-24T01:48:37.556Z,41.78
2018-09-24T01:49:37.582Z,41.69
2018-09-24T01:50:37.601Z,41.88
2018-09-24T01:51:37.626Z,41.88
2018-09-24T01:52:37.652Z,41.78
2018-09-24T01:53:37.669Z,41.69
2018-09-24T01:54:37.696Z,41.60
2018-09-24T01:55:37.723Z,41.60
2018-09-24T01:56:37.742Z,41.69
2018-09-24T01:57:37.768Z,41.69
2018-09-24T01:58:37.792Z,41.30
2018-09-24T01:59:37.811Z,41.60
2018-09-24T02:00:37.837Z,41.50
2018-09-24T02:01:37.864Z,41.30
2018-09-24T02:02:37.885Z,41.60
2018-09-24T02:03:37.907Z,41.30
2018-09-24T02:04:37.935Z,41.30
2018-09-24T02:05:37.955Z,41.60
2018-09-24T02:06:37.981Z,41.50
2018-09-24T02:07:38.004Z,41.50
2018-09-24T02:08:38.027Z,41.50
2018-09-24T02:09:38.050Z,41.50
2018-09-24T02:10:38.075Z,41.69
2018-09-24T02:11:38.096Z,41.20
2018-09-24T02:12:38.124Z,41.50
2018-09-24T02:13:38.145Z,41.30
2018-09-24T02:14:38.168Z,41.30
2018-09-24T02:15:38.191Z,41.40
2018-09-24T02:16:38.216Z,41.30
2018-09-24T02:17:38.239Z,41.40
2018-09-24T02:18:38.265Z,41.30
2018-09-24T02:19:38.286Z,41.40
2018-09-24T02:20:38.310Z,41.20
2018-09-24T02:21:38.336Z,41.30
2018-09-24T02:22:38.360Z,41.30
2018-09-24T02:23:38.383Z,41.30
2018-09-24T02:24:38.460Z,41.20
2018-09-24T02:25:38.430Z,41.11
2018-09-24T02:26:38.455Z,41.20
2018-09-24T02:27:38.476Z,41.20
2018-09-24T02:28:38.500Z,41.30
2018-09-24T02:29:38.526Z,41.11
2018-09-24T02:30:38.549Z,41.20
2018-09-24T02:31:38.574Z,41.30
2018-09-24T02:32:38.593Z,41.20
2018-09-24T02:33:38.620Z,41.30
2018-09-24T02:34:38.641Z,41.11
2018-09-24T02:35:38.667Z,41.30
2018-09-24T02:36:38.688Z,40.63
2018-09-24T02:37:38.716Z,40.63
2018-09-24T02:38:38.737Z,40.82
2018-09-24T02:39:38.759Z,41.02
2018-09-24T02:40:38.782Z,41.11
2018-09-24T02:41:38.806Z,41.20
2018-09-24T02:42:38.829Z,41.02
2018-09-24T02:43:38.853Z,41.20
2018-09-24T02:44:38.878Z,40.63
2018-09-24T02:45:38.902Z,40.63
2018-09-24T02:46:38.927Z,40.82
2018-09-24T02:47:38.947Z,40.63
2018-09-24T02:48:38.971Z,40.72
2018-09-24T02:49:38.999Z,40.82
2018-09-24T02:50:39.019Z,40.82
2018-09-24T02:51:39.044Z,40.34
2018-09-24T02:52:39.068Z,40.63
2018-09-24T02:53:39.092Z,40.63
2018-09-24T02:54:39.117Z,40.72
2018-09-24T02:55:39.139Z,40.53
2018-09-24T02:56:39.161Z,40.44
2018-09-24T02:57:39.185Z,40.72
2018-09-24T02:58:39.209Z,40.44
2018-09-24T02:59:39.234Z,40.72
2018-09-24T03:00:39.255Z,40.63
2018-09-24T03:01:39.281Z,40.63
2018-09-24T03:02:39.305Z,40.72
2018-09-24T03:03:39.327Z,40.34
2018-09-24T03:04:39.359Z,40.53
2018-09-24T03:05:39.379Z,40.44
2018-09-24T03:06:39.397Z,40.34
2018-09-24T03:07:39.423Z,40.34
2018-09-24T03:08:39.448Z,40.44
2018-09-24T03:09:39.467Z,40.63
2018-09-24T03:10:39.493Z,40.63
2018-09-24T03:11:39.518Z,39.95
2018-09-24T03:12:39.538Z,40.34
2018-09-24T03:13:39.590Z,40.15
2018-09-24T03:14:39.589Z,40.17
2018-09-24T03:15:39.610Z,39.95
2018-09-24T03:16:39.632Z,40.05
2018-09-24T03:17:39.661Z,40.05
2018-09-24T03:18:39.681Z,39.76
2018-09-24T03:19:39.703Z,39.76
2018-09-24T03:20:39.729Z,40.15
2018-09-24T03:21:39.751Z,39.95
2018-09-24T03:22:39.777Z,40.24
2018-09-24T03:23:39.799Z,40.05
2018-09-24T03:24:39.822Z,40.15
2018-09-24T03:25:39.848Z,40.15
2018-09-24T03:26:39.872Z,39.57
2018-09-24T03:27:39.894Z,39.66
2018-09-24T03:28:39.917Z,39.66
2018-09-24T03:29:39.942Z,39.76
2018-09-24T03:30:39.970Z,39.57
2018-09-24T03:31:39.990Z,39.57
2018-09-24T03:32:40.013Z,39.57
2018-09-24T03:33:40.042Z,39.76
2018-09-24T03:34:40.059Z,39.87
2018-09-24T03:35:40.083Z,39.57
2018-09-24T03:36:40.111Z,39.69
2018-09-24T03:37:40.130Z,39.95
2018-09-24T03:38:40.155Z,39.95
2018-09-24T03:39:40.180Z,39.76
2018-09-24T03:40:40.200Z,39.78
2018-09-24T03:41:40.227Z,39.76
2018-09-24T03:42:40.252Z,39.95
2018-09-24T03:43:40.272Z,39.95
2018-09-24T03:44:40.299Z,39.76
2018-09-24T03:45:40.321Z,39.37
2018-09-24T03:46:40.343Z,39.47
2018-09-24T03:47:40.368Z,39.29
2018-09-24T03:48:40.391Z,39.28
2018-09-24T03:49:40.418Z,39.18
2018-09-24T03:50:40.440Z,39.47
2018-09-24T03:51:40.462Z,39.47
2018-09-24T03:52:40.484Z,39.37
2018-09-24T03:53:40.510Z,39.09
2018-09-24T03:54:40.532Z,39.29
2018-09-24T03:55:40.557Z,39.09
2018-09-24T03:56:40.581Z,39.37
2018-09-24T03:57:40.613Z,39.47
2018-09-24T03:58:40.625Z,39.11
2018-09-24T03:59:40.650Z,39.37
2018-09-24T04:00:40.675Z,39.39
2018-09-24T04:01:40.696Z,39.11
2018-09-24T04:02:40.727Z,39.09
2018-09-24T04:03:40.743Z,39.37
2018-09-24T04:04:40.767Z,39.37
2018-09-24T04:05:40.792Z,39.39
2018-09-24T04:06:40.815Z,39.28
2018-09-24T04:07:40.838Z,39.18
2018-09-24T04:08:40.871Z,39.28
2018-09-24T04:09:40.949Z,39.28
2018-09-24T04:10:40.919Z,39.28
2018-09-24T04:11:40.934Z,39.18
2018-09-24T04:12:40.958Z,39.29
2018-09-24T04:13:40.984Z,39.28
2018-09-24T04:14:41.004Z,39.28
2018-09-24T04:15:41.029Z,39.28
2018-09-24T04:16:41.053Z,39.09
2018-09-24T04:17:41.115Z,39.28
2018-09-24T04:18:41.101Z,39.20
2018-09-24T04:19:41.173Z,39.28
2018-09-24T04:20:41.145Z,39.20
2018-09-24T04:21:41.174Z,39.18
2018-09-24T04:22:41.194Z,39.39
2018-09-24T04:23:41.224Z,39.28
2018-09-24T04:24:41.245Z,39.47
2018-09-24T04:25:41.262Z,39.37
2018-09-24T04:26:41.291Z,39.29
2018-09-24T04:27:41.316Z,39.18
2018-09-24T04:28:41.335Z,39.18
2018-09-24T04:29:41.360Z,39.47
2018-09-24T04:30:41.395Z,39.37
2018-09-24T04:31:41.405Z,39.28
2018-09-24T04:32:41.434Z,39.29
2018-09-24T04:33:41.456Z,39.28
2018-09-24T04:34:41.479Z,39.39
2018-09-24T04:35:41.501Z,39.47
2018-09-24T04:36:41.524Z,39.28
2018-09-24T04:37:41.552Z,39.49
2018-09-24T04:38:41.581Z,39.47
2018-09-24T04:39:41.631Z,39.09
2018-09-24T04:40:41.620Z,39.29
2018-09-24T04:41:41.643Z,39.18
2018-09-24T04:42:41.667Z,39.18
2018-09-24T04:43:41.690Z,39.37
2018-09-24T04:44:41.715Z,39.20
2018-09-24T04:45:41.738Z,39.39
2018-09-24T04:46:41.764Z,39.37
2018-09-24T04:47:41.786Z,39.18
2018-09-24T04:48:41.808Z,38.99
2018-09-24T04:49:41.833Z,39.09
2018-09-24T04:50:41.856Z,39.09
2018-09-24T04:51:41.883Z,39.18
2018-09-24T04:52:41.904Z,39.18
2018-09-24T04:53:41.927Z,38.99
2018-09-24T04:54:41.955Z,39.09
2018-09-24T04:55:41.973Z,39.09
2018-09-24T04:56:41.997Z,39.18
2018-09-24T04:57:42.024Z,39.18
2018-09-24T04:58:42.091Z,39.28
2018-09-24T04:59:42.068Z,39.29
2018-09-24T05:00:42.093Z,39.28
2018-09-24T05:01:42.117Z,39.28
2018-09-24T05:02:42.141Z,39.20
2018-09-24T05:03:42.166Z,39.28
2018-09-24T05:04:42.191Z,39.37
2018-09-24T05:05:42.208Z,39.37
2018-09-24T05:06:42.238Z,39.28
2018-09-24T05:07:42.256Z,39.20
2018-09-24T05:08:42.279Z,39.09
2018-09-24T05:09:42.305Z,38.79
2018-09-24T05:10:42.330Z,39.47
2018-09-24T05:11:42.355Z,38.79
2018-09-24T05:12:42.377Z,39.09
2018-09-24T05:13:42.399Z,38.89
2018-09-24T05:14:42.426Z,39.28
2018-09-24T05:15:42.447Z,39.18
2018-09-24T05:16:42.472Z,39.37
2018-09-24T05:17:42.494Z,39.28
2018-09-24T05:18:42.517Z,39.29
2018-09-24T05:19:42.545Z,39.28
2018-09-24T05:20:42.569Z,39.18
2018-09-24T05:21:42.588Z,39.20
2018-09-24T05:22:42.614Z,39.18
2018-09-24T05:23:42.639Z,39.28
2018-09-24T05:24:42.659Z,39.20
2018-09-24T05:25:42.686Z,39.09
2018-09-24T05:26:42.707Z,38.99
2018-09-24T05:27:42.735Z,39.18
2018-09-24T05:28:42.763Z,39.49
2018-09-24T05:29:42.779Z,39.49
2018-09-24T05:30:42.803Z,39.18
2018-09-24T05:31:42.829Z,39.11
2018-09-24T05:32:42.846Z,39.20
2018-09-24T05:33:42.872Z,39.18
2018-09-24T05:34:42.897Z,39.01
2018-09-24T05:35:42.919Z,38.99
2018-09-24T05:36:42.944Z,39.09
2018-09-24T05:37:42.973Z,39.09
2018-09-24T05:38:42.994Z,39.29
2018-09-24T05:39:43.019Z,39.18
2018-09-24T05:40:43.038Z,39.09
2018-09-24T05:41:43.063Z,39.09
2018-09-24T05:42:43.088Z,39.18
2018-09-24T05:43:43.110Z,39.09
2018-09-24T05:44:43.134Z,39.28
2018-09-24T05:45:43.157Z,39.39
2018-09-24T05:46:43.180Z,39.47
2018-09-24T05:47:43.206Z,39.37
2018-09-24T05:48:43.227Z,39.28
2018-09-24T05:49:43.251Z,39.11
2018-09-24T05:50:43.274Z,39.28
2018-09-24T05:51:43.297Z,39.47
2018-09-24T05:52:43.322Z,39.20
2018-09-24T05:53:43.346Z,39.09
2018-09-24T05:54:43.370Z,39.18
2018-09-24T05:55:43.395Z,39.11
2018-09-24T05:56:43.417Z,39.20
2018-09-24T05:57:43.441Z,39.01
2018-09-24T05:58:43.465Z,39.29
2018-09-24T05:59:43.488Z,39.20
2018-09-24T06:00:43.512Z,39.01
2018-09-24T06:01:43.535Z,39.11
2018-09-24T06:02:43.560Z,39.11
2018-09-24T06:03:43.581Z,39.01
2018-09-24T06:04:43.684Z,39.01
2018-09-24T06:05:43.630Z,38.62
2018-09-24T06:06:43.656Z,38.81
2018-09-24T06:07:43.677Z,38.81
2018-09-24T06:08:43.708Z,38.81
2018-09-24T06:09:43.726Z,38.71
2018-09-24T06:10:43.758Z,38.81
2018-09-24T06:11:43.778Z,38.81
2018-09-24T06:12:43.796Z,38.81
2018-09-24T06:13:43.877Z,38.81
2018-09-24T06:14:43.847Z,39.01
2018-09-24T06:15:43.873Z,38.91
2018-09-24T06:16:43.890Z,38.81
2018-09-24T06:17:43.914Z,39.01
2018-09-24T06:18:43.942Z,38.81
2018-09-24T06:19:43.962Z,39.01
2018-09-24T06:20:43.986Z,38.53
2018-09-24T06:21:44.011Z,38.33
2018-09-24T06:22:44.034Z,38.43
2018-09-24T06:23:44.057Z,38.53
2018-09-24T06:24:44.081Z,38.53
2018-09-24T06:25:44.114Z,38.62
2018-09-24T06:26:44.134Z,38.71
2018-09-24T06:27:44.162Z,38.53
2018-09-24T06:28:44.178Z,38.23
2018-09-24T06:29:44.237Z,39.01
2018-09-24T06:30:44.224Z,39.11
2018-09-24T06:31:44.247Z,39.11
2018-09-24T06:32:44.275Z,39.01
2018-09-24T06:33:44.295Z,39.29
2018-09-24T06:34:44.328Z,39.11
2018-09-24T06:35:44.344Z,39.22
2018-09-24T06:36:44.367Z,39.22
2018-09-24T06:37:44.393Z,39.03
2018-09-24T06:38:44.415Z,38.74
2018-09-24T06:39:44.437Z,39.03
2018-09-24T06:40:44.464Z,38.64
2018-09-24T06:41:44.486Z,38.54
2018-09-24T06:42:44.509Z,38.74
2018-09-24T06:43:44.532Z,38.83
2018-09-24T06:44:44.557Z,38.83
2018-09-24T06:45:44.580Z,39.32
2018-09-24T06:46:44.605Z,38.83
2018-09-24T06:47:44.629Z,38.83
2018-09-24T06:48:44.651Z,39.03
2018-09-24T06:49:44.752Z,39.03
2018-09-24T06:50:44.700Z,39.03
2018-09-24T06:51:44.724Z,38.45
2018-09-24T06:52:44.751Z,38.64
2018-09-24T06:53:44.772Z,38.54
2018-09-24T06:54:44.800Z,39.12
2018-09-24T06:55:44.820Z,38.54
2018-09-24T06:56:44.843Z,38.56
2018-09-24T06:57:44.869Z,38.18
2018-09-24T06:58:44.892Z,37.98
2018-09-24T06:59:44.920Z,37.79
2018-09-24T07:00:44.939Z,37.23
2018-09-24T07:01:44.965Z,36.57
2018-09-24T07:02:44.989Z,36.57
2018-09-24T07:03:45.011Z,36.55
2018-09-24T07:04:45.036Z,36.94
2018-09-24T07:05:45.075Z,37.23
2018-09-24T07:06:45.084Z,37.42
2018-09-24T07:07:45.115Z,37.23
2018-09-24T07:08:45.134Z,37.23
2018-09-24T07:09:45.157Z,37.32
2018-09-24T07:10:45.180Z,37.04
2018-09-24T07:11:45.205Z,37.04
2018-09-24T07:12:45.230Z,36.57
2018-09-24T07:13:45.257Z,36.57
2018-09-24T07:14:45.277Z,36.76
2018-09-24T07:15:45.301Z,36.57
2018-09-24T07:16:45.332Z,36.57
2018-09-24T07:17:45.351Z,36.38
2018-09-24T07:18:45.376Z,36.18
2018-09-24T07:19:45.398Z,36.28
2018-09-24T07:20:45.423Z,36.18
2018-09-24T07:21:45.446Z,35.80
2018-09-24T07:22:45.477Z,35.89
2018-09-24T07:23:45.497Z,35.91
2018-09-24T07:24:45.520Z,36.00
2018-09-24T07:25:45.546Z,36.18
2018-09-24T07:26:45.571Z,36.08
2018-09-24T07:27:45.647Z,35.89
2018-09-24T07:28:45.619Z,36.08
2018-09-24T07:29:45.717Z,36.47
2018-09-24T07:30:45.668Z,36.18
2018-09-24T07:31:45.691Z,36.66
2018-09-24T07:32:45.721Z,36.57
2018-09-24T07:33:45.756Z,36.57
2018-09-24T07:34:45.773Z,36.38
2018-09-24T07:35:45.792Z,36.57
2018-09-24T07:36:45.815Z,36.86
2018-09-24T07:37:45.838Z,36.66
2018-09-24T07:38:45.865Z,36.57
2018-09-24T07:39:45.886Z,36.76
2018-09-24T07:40:45.913Z,36.47
2018-09-24T07:41:45.936Z,36.66
2018-09-24T07:42:45.966Z,36.65
2018-09-24T07:43:45.985Z,36.84
2018-09-24T07:44:46.011Z,37.04
2018-09-24T07:45:46.036Z,37.13
2018-09-24T07:46:46.061Z,37.23
2018-09-24T07:47:46.089Z,37.23
2018-09-24T07:48:46.109Z,37.13
2018-09-24T07:49:46.135Z,36.74
2018-09-24T07:50:46.159Z,36.84
2018-09-24T07:51:46.184Z,36.74
2018-09-24T07:52:46.205Z,36.74
2018-09-24T07:53:46.230Z,36.55
2018-09-24T07:54:46.257Z,36.55
2018-09-24T07:55:46.279Z,36.65
2018-09-24T07:56:46.305Z,36.46
2018-09-24T07:57:46.329Z,36.26
2018-09-24T07:58:46.354Z,36.46
2018-09-24T07:59:46.379Z,36.74
2018-09-24T08:00:46.419Z,36.46
2018-09-24T08:01:46.424Z,36.55
2018-09-24T08:02:46.450Z,36.55
2018-09-24T08:03:46.476Z,36.46
2018-09-24T08:04:46.499Z,36.55
2018-09-24T08:05:46.521Z,36.26
2018-09-24T08:06:46.553Z,36.65
2018-09-24T08:07:46.573Z,36.07
2018-09-24T08:08:46.599Z,36.26
2018-09-24T08:09:46.623Z,36.34
2018-09-24T08:10:46.646Z,35.95
2018-09-24T08:11:46.668Z,35.97
2018-09-24T08:12:46.727Z,36.07
2018-09-24T08:13:46.721Z,35.68
2018-09-24T08:14:46.744Z,36.26
2018-09-24T08:15:46.768Z,35.78
2018-09-24T08:16:46.790Z,35.78
2018-09-24T08:17:46.819Z,35.68
2018-09-24T08:18:46.839Z,35.58
2018-09-24T08:19:46.862Z,35.68
2018-09-24T08:20:46.890Z,35.49
2018-09-24T08:21:46.922Z,35.68
2018-09-24T08:22:46.938Z,35.39
2018-09-24T08:23:46.964Z,35.39
2018-09-24T08:24:46.993Z,35.20
2018-09-24T08:25:47.010Z,35.39
2018-09-24T08:26:47.035Z,35.29
2018-09-24T08:27:47.073Z,35.29
2018-09-24T08:28:47.111Z,35.29
2018-09-24T08:29:47.112Z,35.58
2018-09-24T08:30:47.141Z,36.07
2018-09-24T08:31:47.157Z,35.68
2018-09-24T08:32:47.186Z,35.97
2018-09-24T08:33:47.206Z,36.16
2018-09-24T08:34:47.232Z,36.26
2018-09-24T08:35:47.258Z,36.36
2018-09-24T08:36:47.284Z,36.26
2018-09-24T08:37:47.305Z,36.46
2018-09-24T08:38:47.324Z,36.72
2018-09-24T08:39:47.353Z,36.72
2018-09-24T08:40:47.372Z,36.36
2018-09-24T08:41:47.408Z,36.55
2018-09-24T08:42:47.431Z,37.02
2018-09-24T08:43:47.454Z,37.02
2018-09-24T08:44:47.479Z,37.23
2018-09-24T08:45:47.493Z,37.30
2018-09-24T08:46:47.530Z,37.21
2018-09-24T08:47:47.562Z,37.62
2018-09-24T08:48:47.571Z,37.60
2018-09-24T08:49:47.626Z,37.60
2018-09-24T08:50:47.629Z,37.70
2018-09-24T08:51:47.645Z,37.70
2018-09-24T08:52:47.671Z,37.79
2018-09-24T08:53:47.700Z,38.08
2018-09-24T08:54:47.773Z,37.71
2018-09-24T08:55:47.745Z,37.62
2018-09-24T08:56:47.811Z,37.71
2018-09-24T08:57:47.793Z,37.71
2018-09-24T08:58:47.819Z,37.23
2018-09-24T08:59:47.840Z,37.42
2018-09-24T09:00:47.866Z,36.94
2018-09-24T09:01:47.894Z,36.84
2018-09-24T09:02:47.958Z,37.13
2018-09-24T09:03:47.938Z,36.65
2018-09-24T09:04:47.965Z,36.55
2018-09-24T09:05:47.987Z,36.66
2018-09-24T09:06:48.015Z,36.86
2018-09-24T09:07:48.037Z,37.15
2018-09-24T09:08:48.059Z,36.96
2018-09-24T09:09:48.086Z,37.05
2018-09-24T09:10:48.109Z,37.05
2018-09-24T09:11:48.133Z,37.15
2018-09-24T09:12:48.158Z,37.15
2018-09-24T09:13:48.188Z,36.96
2018-09-24T09:14:48.212Z,36.66
2018-09-24T09:15:48.232Z,36.66
2018-09-24T09:16:48.258Z,36.47
2018-09-24T09:17:48.282Z,36.86
2018-09-24T09:18:48.304Z,37.05
2018-09-24T09:19:48.332Z,37.05
2018-09-24T09:20:48.353Z,37.15
2018-09-24T09:21:48.378Z,37.05
2018-09-24T09:22:48.408Z,37.24
2018-09-24T09:23:48.428Z,37.54
2018-09-24T09:24:48.451Z,37.24
2018-09-24T09:25:48.475Z,37.15
2018-09-24T09:26:48.500Z,37.34
2018-09-24T09:27:48.525Z,37.73
2018-09-24T09:28:48.551Z,37.54
2018-09-24T09:29:48.575Z,38.21
2018-09-24T09:30:48.599Z,37.82
2018-09-24T09:31:48.625Z,37.73
2018-09-24T09:32:48.652Z,37.34
2018-09-24T09:33:48.685Z,37.24
2018-09-24T09:34:48.696Z,37.44
2018-09-24T09:35:48.724Z,37.34
2018-09-24T09:36:48.746Z,37.15
2018-09-24T09:37:48.771Z,37.15
2018-09-24T09:38:48.797Z,37.05
2018-09-24T09:39:48.826Z,37.24
2018-09-24T09:40:48.845Z,37.24
2018-09-24T09:41:48.870Z,37.44
2018-09-24T09:42:48.894Z,37.55
2018-09-24T09:43:48.919Z,37.26
2018-09-24T09:44:48.945Z,37.73
2018-09-24T09:45:48.971Z,37.55
2018-09-24T09:46:49.088Z,37.65
2018-09-24T09:47:49.017Z,37.65
2018-09-24T09:48:49.043Z,37.65
2018-09-24T09:49:49.067Z,37.55
2018-09-24T09:50:49.093Z,37.26
2018-09-24T09:51:49.121Z,37.36
2018-09-24T09:52:49.146Z,37.36
2018-09-24T09:53:49.171Z,37.26
2018-09-24T09:54:49.196Z,37.26
2018-09-24T09:55:49.216Z,37.36
2018-09-24T09:56:49.240Z,37.36
2018-09-24T09:57:49.270Z,37.46
2018-09-24T09:58:49.293Z,37.07
2018-09-24T09:59:49.317Z,37.17
2018-09-24T10:00:49.342Z,37.07
2018-09-24T10:01:49.366Z,37.36
2018-09-24T10:02:49.390Z,37.36
2018-09-24T10:03:49.415Z,37.55
2018-09-24T10:04:49.483Z,37.94
2018-09-24T10:05:49.467Z,37.82
2018-09-24T10:06:49.489Z,37.92
2018-09-24T10:07:49.513Z,37.92
2018-09-24T10:08:49.540Z,37.73
2018-09-24T10:09:49.564Z,38.41
2018-09-24T10:10:49.591Z,38.31
2018-09-24T10:11:49.612Z,37.92
2018-09-24T10:12:49.638Z,37.73
2018-09-24T10:13:49.662Z,38.21
2018-09-24T10:14:49.690Z,38.48
2018-09-24T10:15:49.711Z,38.20
2018-09-24T10:16:49.741Z,38.39
2018-09-24T10:17:49.762Z,38.68
2018-09-24T10:18:49.787Z,38.39
2018-09-24T10:19:49.809Z,38.20
2018-09-24T10:20:49.835Z,38.20
2018-09-24T10:21:49.860Z,38.20
2018-09-24T10:22:49.885Z,38.20
2018-09-24T10:23:49.905Z,38.48
2018-09-24T10:24:49.945Z,38.39
2018-09-24T10:25:49.959Z,38.20
2018-09-24T10:26:49.984Z,38.10
2018-09-24T10:27:50.015Z,38.58
2018-09-24T10:28:50.036Z,37.90
2018-09-24T10:29:50.061Z,38.20
2018-09-24T10:30:50.082Z,38.20
2018-09-24T10:31:50.109Z,38.00
2018-09-24T10:32:50.130Z,38.10
2018-09-24T10:33:50.236Z,37.90
2018-09-24T10:34:50.181Z,37.98
2018-09-24T10:35:50.204Z,38.10
2018-09-24T10:36:50.240Z,38.10
2018-09-24T10:37:50.254Z,38.10
2018-09-24T10:38:50.280Z,38.29
2018-09-24T10:39:50.302Z,38.10
2018-09-24T10:40:50.331Z,38.00
2018-09-24T10:41:50.352Z,38.29
2018-09-24T10:42:50.375Z,38.58
2018-09-24T10:43:50.399Z,38.48
2018-09-24T10:44:50.433Z,38.20
2018-09-24T10:45:50.484Z,38.39
2018-09-24T10:46:50.474Z,38.50
2018-09-24T10:47:50.497Z,38.12
2018-09-24T10:48:50.524Z,38.02
2018-09-24T10:49:50.566Z,38.12
2018-09-24T10:50:50.573Z,38.12
2018-09-24T10:51:50.595Z,38.12
2018-09-24T10:52:50.661Z,38.21
2018-09-24T10:53:50.646Z,37.82
2018-09-24T10:54:50.670Z,37.73
2018-09-24T10:55:50.763Z,37.92
2018-09-24T10:56:50.718Z,37.73
2018-09-24T10:57:50.745Z,37.82
2018-09-24T10:58:50.768Z,37.63
2018-09-24T10:59:50.792Z,37.73
2018-09-24T11:00:50.817Z,37.24
2018-09-24T11:01:50.842Z,37.24
2018-09-24T11:02:50.867Z,37.15
2018-09-24T11:03:50.894Z,37.34
2018-09-24T11:04:50.971Z,37.44
2018-09-24T11:05:50.941Z,37.44
2018-09-24T11:06:50.968Z,37.05
2018-09-24T11:07:50.989Z,37.05
2018-09-24T11:08:51.014Z,37.05
2018-09-24T11:09:51.043Z,36.57
2018-09-24T11:10:51.075Z,36.58
2018-09-24T11:11:51.090Z,36.98
2018-09-24T11:12:51.115Z,36.78
2018-09-24T11:13:51.140Z,36.58
2018-09-24T11:14:51.165Z,36.49
2018-09-24T11:15:51.374Z,36.49
2018-09-24T11:16:51.316Z,36.58
2018-09-24T11:17:51.459Z,36.88
2018-09-24T11:18:51.261Z,36.51
2018-09-24T11:19:51.299Z,36.49
2018-09-24T11:20:51.311Z,36.32
2018-09-24T11:21:51.335Z,36.40
2018-09-24T11:22:51.361Z,36.22
2018-09-24T11:23:51.384Z,36.32
2018-09-24T11:24:51.410Z,36.70
2018-09-24T11:25:51.442Z,36.41
2018-09-24T11:26:51.462Z,36.22
2018-09-24T11:27:51.486Z,36.02
2018-09-24T11:28:51.510Z,35.93
2018-09-24T11:29:51.537Z,36.12
2018-09-24T11:30:51.559Z,36.80
2018-09-24T11:31:51.588Z,36.41
2018-09-24T11:32:51.610Z,36.41
2018-09-24T11:33:51.635Z,36.70
2018-09-24T11:34:51.661Z,36.60
2018-09-24T11:35:51.686Z,36.32
2018-09-24T11:36:51.715Z,36.00
2018-09-24T11:37:51.741Z,35.93
2018-09-24T11:38:51.768Z,36.02
2018-09-24T11:39:51.786Z,36.02
2018-09-24T11:40:51.810Z,35.93
2018-09-24T11:41:51.840Z,36.12
2018-09-24T11:42:51.865Z,36.12
2018-09-24T11:43:51.884Z,36.41
2018-09-24T11:44:51.910Z,35.73
2018-09-24T11:45:51.936Z,35.64
2018-09-24T11:46:52.026Z,35.44
2018-09-24T11:47:51.987Z,35.15
2018-09-24T11:48:52.009Z,35.05
2018-09-24T11:49:52.036Z,34.97
2018-09-24T11:50:52.060Z,34.88
2018-09-24T11:51:52.086Z,34.86
2018-09-24T11:52:52.108Z,35.17
2018-09-24T11:53:52.136Z,34.88
2018-09-24T11:54:52.160Z,34.67
2018-09-24T11:55:52.186Z,34.86
2018-09-24T11:56:52.213Z,34.86
2018-09-24T11:57:52.238Z,34.96
2018-09-24T11:58:52.262Z,34.28
2018-09-24T11:59:52.299Z,34.28
2018-09-24T12:00:52.312Z,34.67
2018-09-24T12:01:52.340Z,35.05
2018-09-24T12:02:52.363Z,35.15
2018-09-24T12:03:52.391Z,35.05
2018-09-24T12:04:52.419Z,34.86
2018-09-24T12:05:52.438Z,34.67
2018-09-24T12:06:52.463Z,34.47
2018-09-24T12:07:52.490Z,34.77
2018-09-24T12:08:52.511Z,34.57
2018-09-24T12:09:52.536Z,34.96
2018-09-24T12:10:52.566Z,34.67
2018-09-24T12:11:52.591Z,34.38
2018-09-24T12:12:52.614Z,34.28
2018-09-24T12:13:52.643Z,34.67
2018-09-24T12:14:52.665Z,34.96
2018-09-24T12:15:52.690Z,34.65
2018-09-24T12:16:52.718Z,34.75
2018-09-24T12:17:52.740Z,34.75
2018-09-24T12:18:52.765Z,35.04
2018-09-24T12:19:52.791Z,34.92
2018-09-24T12:20:52.821Z,35.12
2018-09-24T12:21:52.840Z,35.41
2018-09-24T12:22:52.866Z,35.60
2018-09-24T12:23:52.890Z,35.70
2018-09-24T12:24:52.916Z,36.28
2018-09-24T12:25:52.941Z,35.99
2018-09-24T12:26:52.969Z,36.18
2018-09-24T12:27:52.992Z,36.28
2018-09-24T12:28:53.015Z,36.28
2018-09-24T12:29:53.043Z,36.18
2018-09-24T12:30:53.063Z,36.86
2018-09-24T12:31:53.089Z,36.57
2018-09-24T12:32:53.119Z,36.86
2018-09-24T12:33:53.140Z,36.66
2018-09-24T12:34:53.163Z,37.23
2018-09-24T12:35:53.191Z,37.04
2018-09-24T12:36:53.213Z,36.84
2018-09-24T12:37:53.238Z,37.32
2018-09-24T12:38:53.265Z,37.24
2018-09-24T12:39:53.288Z,37.71
2018-09-24T12:40:53.311Z,37.62
2018-09-24T12:41:53.338Z,37.71
2018-09-24T12:42:53.364Z,37.62
2018-09-24T12:43:53.389Z,37.71
2018-09-24T12:44:53.413Z,37.81
2018-09-24T12:45:53.437Z,38.00
2018-09-24T12:46:53.460Z,37.90
2018-09-24T12:47:53.538Z,37.82
2018-09-24T12:48:53.511Z,38.21
2018-09-24T12:49:53.535Z,38.39
2018-09-24T12:50:53.563Z,38.12
2018-09-24T12:51:53.587Z,38.21
2018-09-24T12:52:53.611Z,38.50